Milford, Kentucky
Current Conditions -  °F | °C
As of 7:35 AM on Thursday 23 Oct 2014 (Local Time) from KFGX Reporting Station
Clear Clear  
Wind Chill: 42°   Ceiling: Unl
Heat Index: 42°   Visibility: 10mi
Dew Point: 39°   Wind: 3mph
Humidity: 90%   Direction: 280°W
Pressure: 30.25"   Gusts: NA
Location:  38.58°N, 84.16°W
Report Text: KFGX 231135Z AUTO 28003KT 10SM CLR 06/04 A3025 RMK AO2 T00550040
Loading
Personal Weather Stations






























Interactive Weather Map
Tropical Storm Tracking
New forecast layout! Learn more

10-Day Weather Forecast

Advertisements
Track Severe Weather on mobile